createdAt,value
2017-12-01T00:00:45.277Z,98015.30
2017-12-01T00:03:13.540Z,98016.61
2017-12-01T00:05:41.847Z,98024.02
2017-12-01T00:08:10.117Z,98032.75
2017-12-01T00:10:38.554Z,98032.00
2017-12-01T00:13:06.858Z,98029.39
2017-12-01T00:15:35.144Z,98035.09
2017-12-01T00:18:03.421Z,98038.10
2017-12-01T00:20:31.711Z,98035.80
2017-12-01T00:22:59.982Z,98032.04
2017-12-01T00:25:28.255Z,98033.14
2017-12-01T00:27:56.515Z,98031.89
2017-12-01T00:30:24.800Z,98039.63
2017-12-01T00:32:53.068Z,98029.81
2017-12-01T00:35:21.358Z,98030.38
2017-12-01T00:37:49.614Z,98027.31
2017-12-01T00:40:17.916Z,98034.04
2017-12-01T00:42:46.209Z,98035.48
2017-12-01T00:45:14.517Z,98028.87
2017-12-01T00:47:42.843Z,98020.92
2017-12-01T00:52:38.491Z,98036.55
2017-12-01T00:55:06.827Z,98041.53
2017-12-01T00:57:35.514Z,98059.30
2017-12-01T01:00:04.735Z,98042.80
2017-12-01T01:02:33.077Z,98040.89
2017-12-01T01:05:01.361Z,98047.45
2017-12-01T01:07:29.658Z,98044.25
2017-12-01T01:09:58.930Z,98040.18
2017-12-01T01:12:27.224Z,98044.34
2017-12-01T01:14:55.480Z,98044.00
2017-12-01T01:17:23.773Z,98047.76
2017-12-01T01:19:52.033Z,98047.67
2017-12-01T01:22:20.301Z,98046.91
2017-12-01T01:24:48.567Z,98048.72
2017-12-01T01:27:16.873Z,98050.63
2017-12-01T01:29:45.159Z,98062.10
2017-12-01T01:32:13.418Z,98058.73
2017-12-01T01:34:41.747Z,98062.36
2017-12-01T01:37:10.037Z,98061.90
2017-12-01T01:39:38.315Z,98057.79
2017-12-01T01:42:06.582Z,98058.60
2017-12-01T01:44:34.864Z,98066.78
2017-12-01T01:47:03.130Z,98075.09
2017-12-01T01:49:31.549Z,98074.90
2017-12-01T01:51:59.828Z,98075.34
2017-12-01T01:54:28.131Z,98082.98
2017-12-01T01:56:56.408Z,98079.36
2017-12-01T01:59:24.658Z,98082.28
2017-12-01T02:01:52.940Z,98082.08
2017-12-01T02:04:21.200Z,98083.37
2017-12-01T02:06:49.488Z,98086.38
2017-12-01T02:09:17.727Z,98086.70
2017-12-01T02:11:46.184Z,98089.72
2017-12-01T02:14:14.445Z,98083.33
2017-12-01T02:16:42.702Z,98088.63
2017-12-01T02:19:10.971Z,98090.23
2017-12-01T02:21:39.235Z,98090.25
2017-12-01T02:24:07.713Z,98086.64
2017-12-01T02:26:35.998Z,98089.55
2017-12-01T02:29:04.266Z,98096.52
2017-12-01T02:31:32.534Z,98097.01
2017-12-01T02:34:00.825Z,98098.16
2017-12-01T02:36:29.094Z,98100.86
2017-12-01T02:38:57.395Z,98100.70
2017-12-01T02:41:25.670Z,98101.58
2017-12-01T02:43:53.943Z,98094.47
2017-12-01T02:46:22.212Z,98104.14
2017-12-01T02:48:50.501Z,98105.09
2017-12-01T02:51:18.778Z,98107.77
2017-12-01T02:53:47.081Z,98101.44
2017-12-01T02:56:15.351Z,98100.03
2017-12-01T02:58:43.608Z,98100.58
2017-12-01T03:01:11.890Z,98101.44
2017-12-01T03:03:40.161Z,98098.13
2017-12-01T03:06:08.443Z,98110.47
2017-12-01T03:08:36.700Z,98117.45
2017-12-01T03:11:04.975Z,98118.36
2017-12-01T03:13:33.240Z,98119.01
2017-12-01T03:16:01.510Z,98119.31
2017-12-01T03:18:29.819Z,98118.67
2017-12-01T03:20:58.092Z,98113.09
2017-12-01T03:23:26.395Z,98115.75
2017-12-01T03:25:54.641Z,98119.56
2017-12-01T03:28:22.921Z,98120.01
2017-12-01T03:30:51.276Z,98118.56
2017-12-01T03:33:19.542Z,98124.09
2017-12-01T03:35:47.806Z,98126.49
2017-12-01T03:38:16.126Z,98130.31
2017-12-01T03:40:44.374Z,98137.22
2017-12-01T03:43:12.647Z,98125.13
2017-12-01T03:45:40.936Z,98139.42
2017-12-01T03:48:09.196Z,98142.53
2017-12-01T03:50:37.471Z,98149.16
2017-12-01T03:53:05.763Z,98132.64
2017-12-01T03:55:34.499Z,98154.48
2017-12-01T03:58:02.754Z,98159.59
2017-12-01T04:00:31.350Z,98160.08
2017-12-01T04:02:59.643Z,98158.16
2017-12-01T04:05:27.901Z,98156.81
2017-12-01T04:07:57.014Z,98160.33
2017-12-01T04:10:25.303Z,98159.02
2017-12-01T04:12:53.589Z,98168.36
2017-12-01T04:15:21.856Z,98158.61
2017-12-01T04:17:50.159Z,98167.20
2017-12-01T04:20:18.402Z,98171.67
2017-12-01T04:22:46.730Z,98177.59
2017-12-01T04:25:14.996Z,98180.27
2017-12-01T04:27:43.267Z,98183.33
2017-12-01T04:30:11.560Z,98188.99
2017-12-01T04:32:39.835Z,98181.66
2017-12-01T04:35:08.084Z,98183.23
2017-12-01T04:37:36.407Z,98182.27
2017-12-01T04:40:05.574Z,98188.25
2017-12-01T04:42:33.852Z,98197.23
2017-12-01T04:45:02.124Z,98201.38
2017-12-01T04:47:30.396Z,98201.59
2017-12-01T04:49:58.685Z,98207.84
2017-12-01T04:52:26.941Z,98197.66
2017-12-01T04:54:55.253Z,98210.36
2017-12-01T04:57:23.511Z,98209.42
2017-12-01T04:59:51.952Z,98216.25
2017-12-01T05:02:20.225Z,98221.88
2017-12-01T05:04:48.518Z,98224.69
2017-12-01T05:07:16.760Z,98227.55
2017-12-01T05:09:45.031Z,98228.25
2017-12-01T05:12:13.336Z,98229.95
2017-12-01T05:14:41.578Z,98237.41
2017-12-01T05:17:09.858Z,98238.95
2017-12-01T05:19:38.110Z,98242.91
2017-12-01T05:22:06.529Z,98252.34
2017-12-01T05:24:35.224Z,98256.37
2017-12-01T05:27:03.499Z,98259.08
2017-12-01T05:29:31.746Z,98258.09
2017-12-01T05:32:00.024Z,98260.44
2017-12-01T05:34:28.279Z,98259.13
2017-12-01T05:36:56.558Z,98262.35
2017-12-01T05:39:24.816Z,98261.06
2017-12-01T05:41:53.124Z,98262.68
2017-12-01T05:44:21.387Z,98265.69
2017-12-01T05:46:50.138Z,98257.75
2017-12-01T05:49:18.416Z,98270.17
2017-12-01T05:51:46.700Z,98269.72
2017-12-01T05:54:14.988Z,98268.56
2017-12-01T05:56:43.254Z,98276.55
2017-12-01T05:59:11.534Z,98277.91
2017-12-01T06:01:39.800Z,98284.64
2017-12-01T06:04:08.088Z,98288.20
2017-12-01T06:06:36.353Z,98281.81
2017-12-01T06:09:04.997Z,98296.48
2017-12-01T06:11:33.247Z,98299.40
2017-12-01T06:14:01.519Z,98291.54
2017-12-01T06:16:29.780Z,98305.59
2017-12-01T06:18:58.086Z,98281.91
2017-12-01T06:21:26.751Z,98308.09
2017-12-01T06:23:55.028Z,98314.77
2017-12-01T06:26:23.334Z,98311.81
2017-12-01T06:28:51.578Z,98310.14
2017-12-01T06:31:19.865Z,98317.28
2017-12-01T06:33:48.155Z,98316.36
2017-12-01T06:36:16.453Z,98318.08
2017-12-01T06:38:44.731Z,98322.70
2017-12-01T06:41:14.088Z,98328.28
2017-12-01T06:43:42.388Z,98322.26
2017-12-01T06:46:10.642Z,98336.31
2017-12-01T06:48:38.967Z,98342.86
2017-12-01T06:51:07.282Z,98342.38
2017-12-01T06:53:35.585Z,98350.16
2017-12-01T06:56:03.832Z,98349.28
2017-12-01T06:58:32.145Z,98357.50
2017-12-01T07:01:00.383Z,98355.28
2017-12-01T07:03:28.643Z,98362.21
2017-12-01T07:05:56.921Z,98369.33
2017-12-01T07:08:25.174Z,98377.33
2017-12-01T07:10:53.485Z,98377.59
2017-12-01T07:13:21.760Z,98380.97
2017-12-01T07:15:50.049Z,98383.59
2017-12-01T07:18:18.380Z,98390.67
2017-12-01T07:20:46.643Z,98389.12
2017-12-01T07:23:14.920Z,98392.33
2017-12-01T07:25:43.224Z,98377.94
2017-12-01T07:28:11.534Z,98402.24
2017-12-01T07:30:39.787Z,98396.25
2017-12-01T07:33:08.077Z,98407.87
2017-12-01T07:35:36.465Z,98416.75
2017-12-01T07:38:04.819Z,98420.02
2017-12-01T07:40:33.133Z,98422.23
2017-12-01T07:43:01.444Z,98420.41
2017-12-01T07:45:29.722Z,98428.67
2017-12-01T07:47:58.124Z,98433.56
2017-12-01T07:50:26.513Z,98437.42
2017-12-01T07:52:54.817Z,98442.52
2017-12-01T07:55:23.122Z,98436.80
2017-12-01T07:57:51.395Z,98441.59
2017-12-01T08:00:20.179Z,98449.19
2017-12-01T08:02:48.434Z,98453.41
2017-12-01T08:05:16.719Z,98443.05
2017-12-01T08:07:44.975Z,98453.42
2017-12-01T08:10:13.239Z,98460.67
2017-12-01T08:12:42.052Z,98462.66
2017-12-01T08:15:10.313Z,98451.16
2017-12-01T08:17:38.643Z,98471.05
2017-12-01T08:20:06.894Z,98478.53
2017-12-01T08:22:46.796Z,98475.34
2017-12-01T08:25:24.875Z,98461.87
2017-12-01T08:27:53.207Z,98472.38
2017-12-01T08:30:21.467Z,98480.38
2017-12-01T08:32:49.833Z,98486.67
2017-12-01T08:35:18.096Z,98487.19
2017-12-01T08:37:46.395Z,98486.38
2017-12-01T08:40:14.795Z,98485.94
2017-12-01T08:42:43.069Z,98490.28
2017-12-01T08:45:11.427Z,98499.59
2017-12-01T08:47:39.707Z,98506.74
2017-12-01T08:50:08.040Z,98503.28
2017-12-01T08:52:36.316Z,98508.03
2017-12-01T08:55:05.251Z,98418.34
2017-12-01T08:57:33.520Z,98516.02
2017-12-01T09:00:01.894Z,98509.44
2017-12-01T09:02:30.169Z,98526.85
2017-12-01T09:04:58.457Z,98528.67
2017-12-01T09:07:26.820Z,98533.84
2017-12-01T09:09:55.115Z,98539.70
2017-12-01T09:12:23.376Z,98541.84
2017-12-01T09:14:52.272Z,98543.29
2017-12-01T09:17:20.549Z,98545.63
2017-12-01T09:19:48.832Z,98551.06
2017-12-01T09:22:17.116Z,98543.70
2017-12-01T09:24:45.394Z,98555.58
2017-12-01T09:27:13.719Z,98560.77
2017-12-01T09:29:42.076Z,98568.98
2017-12-01T09:32:10.363Z,98568.55
2017-12-01T09:34:38.660Z,98579.08
2017-12-01T09:37:08.817Z,98580.89
2017-12-01T09:39:37.163Z,98586.71
2017-12-01T09:42:05.417Z,98592.10
2017-12-01T09:44:33.707Z,98598.58
2017-12-01T09:47:02.939Z,98592.02
2017-12-01T09:49:31.355Z,98608.12
2017-12-01T09:51:59.586Z,98610.88
2017-12-01T09:54:27.903Z,98611.97
2017-12-01T09:56:56.171Z,98618.95
2017-12-01T09:59:25.004Z,98616.31
2017-12-01T10:01:53.282Z,98619.91
2017-12-01T10:04:21.735Z,98618.34
2017-12-01T10:06:50.023Z,98589.72
2017-12-01T10:09:18.339Z,98622.27
2017-12-01T10:11:46.634Z,98620.51
2017-12-01T10:14:14.910Z,98618.66
2017-12-01T10:16:43.260Z,98623.80
2017-12-01T10:19:11.482Z,98623.77
2017-12-01T10:21:39.779Z,98619.77
2017-12-01T10:24:08.060Z,98625.55
2017-12-01T10:26:36.340Z,98625.90
2017-12-01T10:29:04.687Z,98625.80
2017-12-01T10:31:33.039Z,98629.00
2017-12-01T10:34:01.403Z,98625.97
2017-12-01T10:36:29.669Z,98634.80
2017-12-01T10:38:57.918Z,98641.88
2017-12-01T10:41:26.261Z,98641.85
2017-12-01T10:43:54.539Z,98631.69
2017-12-01T10:46:22.899Z,98643.67
2017-12-01T10:48:51.264Z,98644.52
2017-12-01T10:51:19.538Z,98647.63
2017-12-01T10:53:47.854Z,98646.23
2017-12-01T10:56:16.107Z,98649.45
2017-12-01T10:58:44.384Z,98647.50
2017-12-01T11:01:12.647Z,98652.42
2017-12-01T11:03:41.839Z,98651.45
2017-12-01T11:06:10.262Z,98653.16
2017-12-01T11:08:38.559Z,98639.10
2017-12-01T11:11:06.841Z,98641.91
2017-12-01T11:13:35.158Z,98650.25
2017-12-01T11:16:03.416Z,98657.61
2017-12-01T11:18:31.905Z,98656.48
2017-12-01T11:21:00.289Z,98656.91
2017-12-01T11:23:28.522Z,98658.65
2017-12-01T11:25:56.833Z,98664.94
2017-12-01T11:28:25.108Z,98668.85
2017-12-01T11:30:53.500Z,98671.59
2017-12-01T11:33:21.763Z,98670.57
2017-12-01T11:35:50.283Z,98679.78
2017-12-01T11:38:18.538Z,98683.45
2017-12-01T11:40:46.894Z,98668.66
2017-12-01T11:43:15.170Z,98691.30
2017-12-01T11:45:43.555Z,98690.89
2017-12-01T11:48:11.886Z,98686.73
2017-12-01T11:50:40.226Z,98675.03
2017-12-01T11:53:08.580Z,98691.27
2017-12-01T11:55:36.915Z,98692.03
2017-12-01T11:58:05.243Z,98696.00
2017-12-01T12:00:37.044Z,98698.39
2017-12-01T12:03:05.348Z,98685.84
2017-12-01T12:05:34.129Z,98699.20
2017-12-01T12:08:02.418Z,98700.36
2017-12-01T12:10:30.801Z,98693.41
2017-12-01T12:12:59.128Z,98708.75
2017-12-01T12:15:27.385Z,98711.27
2017-12-01T12:17:55.716Z,98710.89
2017-12-01T12:20:23.983Z,98697.97
2017-12-01T12:22:52.248Z,98711.84
2017-12-01T12:25:21.169Z,98717.82
2017-12-01T12:27:50.394Z,98708.95
2017-12-01T12:30:18.684Z,98701.75
2017-12-01T12:32:47.660Z,98699.04
2017-12-01T12:35:16.051Z,98714.88
2017-12-01T12:37:44.327Z,98723.39
2017-12-01T12:40:12.643Z,98724.56
2017-12-01T12:42:40.951Z,98731.09
2017-12-01T12:45:09.252Z,98729.44
2017-12-01T12:47:37.640Z,98729.88
2017-12-01T12:50:06.636Z,98732.67
2017-12-01T12:52:35.095Z,98730.45
2017-12-01T12:55:03.461Z,98734.00
2017-12-01T12:57:31.794Z,98728.61
2017-12-01T13:00:00.114Z,98727.89
2017-12-01T13:02:28.445Z,98729.21
2017-12-01T13:04:56.800Z,98736.89
2017-12-01T13:07:25.076Z,98740.11
2017-12-01T13:09:53.337Z,98722.93
2017-12-01T13:12:21.649Z,98738.14
2017-12-01T13:14:49.920Z,98739.22
2017-12-01T13:17:18.311Z,98739.06
2017-12-01T13:19:46.568Z,98743.20
2017-12-01T13:22:14.876Z,98749.02
2017-12-01T13:24:43.394Z,98744.42
2017-12-01T13:27:11.687Z,98721.30
2017-12-01T13:29:40.619Z,98753.06
2017-12-01T13:32:08.951Z,98749.84
2017-12-01T13:34:37.220Z,98752.95
2017-12-01T13:37:05.926Z,98703.34
2017-12-01T13:39:34.227Z,98760.24
2017-12-01T13:42:02.497Z,98761.45
2017-12-01T13:44:30.804Z,98763.14
2017-12-01T13:46:59.096Z,98768.03
2017-12-01T13:49:27.358Z,98765.20
2017-12-01T13:51:55.681Z,98773.62
2017-12-01T13:54:24.018Z,98763.70
2017-12-01T13:56:52.301Z,98779.82
2017-12-01T13:59:20.647Z,98779.36
2017-12-01T14:01:49.002Z,98775.08
2017-12-01T14:04:17.296Z,98765.98
2017-12-01T14:06:45.643Z,98789.98
2017-12-01T14:09:13.984Z,98785.15
2017-12-01T14:11:42.298Z,98781.00
2017-12-01T14:14:10.685Z,98784.31
2017-12-01T14:16:39.067Z,98782.89
2017-12-01T14:19:07.419Z,98794.20
2017-12-01T14:21:35.716Z,98798.28
2017-12-01T14:24:04.057Z,98801.58
2017-12-01T14:26:32.322Z,98802.55
2017-12-01T14:29:00.635Z,98802.53
2017-12-01T14:31:29.018Z,98815.62
2017-12-01T14:33:57.295Z,98817.84
2017-12-01T14:36:25.616Z,98825.80
2017-12-01T14:38:53.939Z,98834.03
2017-12-01T14:41:22.360Z,98831.52
2017-12-01T14:43:50.732Z,98849.33
2017-12-01T14:46:19.089Z,98817.25
2017-12-01T14:48:47.352Z,98843.70
2017-12-01T14:51:15.663Z,98849.09
2017-12-01T14:53:44.003Z,98831.45
2017-12-01T14:56:12.319Z,98860.05
2017-12-01T14:58:40.671Z,98863.98
2017-12-01T15:01:08.973Z,98862.12
2017-12-01T15:03:37.267Z,98867.61
2017-12-01T15:06:05.566Z,98863.83
2017-12-01T15:08:33.935Z,98858.36
2017-12-01T15:11:02.221Z,98880.16
2017-12-01T15:13:30.550Z,98872.66
2017-12-01T15:15:58.849Z,98887.88
2017-12-01T15:18:27.150Z,98897.80
2017-12-01T15:20:57.166Z,98893.08
2017-12-01T15:23:25.531Z,98907.33
2017-12-01T15:25:53.827Z,98906.65
2017-12-01T15:28:22.088Z,98909.78
2017-12-01T15:30:50.376Z,98899.94
2017-12-01T15:33:18.675Z,98904.11
2017-12-01T15:35:46.950Z,98917.92
2017-12-01T15:38:15.345Z,98917.12
2017-12-01T15:40:43.680Z,98926.42
2017-12-01T15:43:12.032Z,98932.11
2017-12-01T15:45:40.298Z,98930.75
2017-12-01T15:48:08.606Z,98926.66
2017-12-01T15:50:36.883Z,98928.28
2017-12-01T15:53:05.418Z,98922.96
2017-12-01T15:55:33.814Z,98919.66
2017-12-01T15:58:02.126Z,98934.08
2017-12-01T16:00:30.451Z,98927.74
2017-12-01T16:02:59.649Z,98941.94
2017-12-01T16:05:27.930Z,98948.53
2017-12-01T16:07:56.182Z,98957.30
2017-12-01T16:10:24.528Z,98940.39
2017-12-01T16:12:52.811Z,98950.74
2017-12-01T16:15:21.196Z,98968.91
2017-12-01T16:17:49.463Z,98958.36
2017-12-01T16:20:17.790Z,98963.50
2017-12-01T16:22:46.087Z,98967.75
2017-12-01T16:25:14.366Z,98959.25
2017-12-01T16:27:42.668Z,98970.69
2017-12-01T16:30:11.764Z,98977.07
2017-12-01T16:32:42.434Z,98984.02
2017-12-01T16:35:08.416Z,98980.59
2017-12-01T16:37:36.728Z,98986.77
2017-12-01T16:40:05.282Z,98979.27
2017-12-01T16:42:33.587Z,98990.03
2017-12-01T16:45:01.848Z,98990.14
2017-12-01T16:47:30.178Z,98994.56
2017-12-01T16:49:59.385Z,98997.58
2017-12-01T16:52:27.734Z,99002.34
2017-12-01T16:54:56.088Z,99008.86
2017-12-01T16:57:24.373Z,99009.57
2017-12-01T16:59:52.656Z,99014.56
2017-12-01T17:02:20.918Z,99018.44
2017-12-01T17:04:49.222Z,99022.47
2017-12-01T17:07:17.494Z,99023.73
2017-12-01T17:09:45.788Z,99027.81
2017-12-01T17:12:14.052Z,99030.46
2017-12-01T17:14:42.309Z,99031.66
2017-12-01T17:17:10.622Z,99037.67
2017-12-01T17:19:38.966Z,99033.33
2017-12-01T17:22:07.276Z,99034.75
2017-12-01T17:24:35.611Z,99037.59
2017-12-01T17:27:03.900Z,99039.30
2017-12-01T17:29:32.151Z,99046.38
2017-12-01T17:32:01.539Z,99046.52
2017-12-01T17:34:29.852Z,99053.88
2017-12-01T17:36:58.559Z,99053.61
2017-12-01T17:39:26.945Z,99062.28
2017-12-01T17:41:55.249Z,99065.80
2017-12-01T17:44:23.555Z,99065.61
2017-12-01T17:46:51.859Z,99069.96
2017-12-01T17:49:20.170Z,99076.17
2017-12-01T17:51:48.453Z,99067.80
2017-12-01T17:54:18.400Z,99074.06
2017-12-01T17:56:46.681Z,99070.16
2017-12-01T17:59:15.831Z,99074.34
2017-12-01T18:01:44.102Z,99075.58
2017-12-01T18:04:12.409Z,99076.39
2017-12-01T18:06:40.732Z,99076.18
2017-12-01T18:09:08.996Z,99077.75
2017-12-01T18:11:37.254Z,99081.12
2017-12-01T18:14:05.652Z,99085.77
2017-12-01T18:16:33.915Z,99085.79
2017-12-01T18:19:02.192Z,99091.48
2017-12-01T18:21:30.952Z,99090.61
2017-12-01T18:23:59.227Z,99095.32
2017-12-01T18:26:27.520Z,99090.45
2017-12-01T18:28:55.792Z,99084.80
2017-12-01T18:31:24.079Z,99091.08
2017-12-01T18:33:52.430Z,99096.02
2017-12-01T18:36:20.749Z,99096.16
2017-12-01T18:38:49.005Z,99100.96
2017-12-01T18:41:17.290Z,99098.34
2017-12-01T18:43:45.592Z,99098.45
2017-12-01T18:46:13.836Z,99101.97
2017-12-01T18:48:42.143Z,99106.89
2017-12-01T18:51:10.416Z,99113.14
2017-12-01T18:53:38.732Z,99096.06
2017-12-01T18:56:07.035Z,99110.72
2017-12-01T18:58:35.376Z,99090.09
2017-12-01T19:01:03.759Z,99099.08
2017-12-01T19:03:32.019Z,99117.18
2017-12-01T19:06:00.298Z,99120.60
2017-12-01T19:08:28.638Z,99123.49
2017-12-01T19:10:56.900Z,99124.95
2017-12-01T19:13:25.183Z,99124.45
2017-12-01T19:15:53.527Z,99117.94
2017-12-01T19:18:21.738Z,99116.82
2017-12-01T19:20:50.056Z,99125.23
2017-12-01T19:23:18.338Z,99125.76
2017-12-01T19:25:46.595Z,99126.47
2017-12-01T19:28:14.878Z,99125.41
2017-12-01T19:30:43.190Z,99130.84
2017-12-01T19:33:11.464Z,99129.53
2017-12-01T19:35:39.784Z,99130.89
2017-12-01T19:38:08.144Z,99139.80
2017-12-01T19:40:36.499Z,99145.11
2017-12-01T19:43:04.817Z,99146.21
2017-12-01T19:45:33.092Z,99148.17
2017-12-01T19:48:01.455Z,99137.81
2017-12-01T19:50:29.732Z,99158.63
2017-12-01T19:52:58.033Z,99161.63
2017-12-01T19:55:26.296Z,99154.70
2017-12-01T19:57:54.632Z,99173.41
2017-12-01T20:00:22.895Z,99175.46
2017-12-01T20:02:51.192Z,99177.67
2017-12-01T20:05:19.488Z,99176.75
2017-12-01T20:07:47.779Z,99183.11
2017-12-01T20:10:17.061Z,99186.77
2017-12-01T20:12:45.333Z,99193.84
2017-12-01T20:15:13.639Z,99184.05
2017-12-01T20:17:41.932Z,99198.86
2017-12-01T20:20:10.196Z,99206.81
2017-12-01T20:22:38.504Z,99212.61
2017-12-01T20:25:06.829Z,99212.78
2017-12-01T20:27:35.147Z,99207.67
2017-12-01T20:30:03.411Z,99213.58
2017-12-01T20:32:31.760Z,99213.38
2017-12-01T20:35:00.049Z,99215.77
2017-12-01T20:37:28.332Z,99212.80
2017-12-01T20:39:56.859Z,99217.06
2017-12-01T20:42:25.279Z,99219.40
2017-12-01T20:44:53.579Z,99222.48
2017-12-01T20:47:21.845Z,99227.02
2017-12-01T20:49:50.158Z,99235.03
2017-12-01T20:52:18.446Z,99232.42
2017-12-01T20:54:47.426Z,99238.27
2017-12-01T20:57:15.680Z,99236.97
2017-12-01T20:59:43.992Z,99235.43
2017-12-01T21:02:12.296Z,99234.81
2017-12-01T21:04:40.590Z,99244.18
2017-12-01T21:07:08.903Z,99232.55
2017-12-01T21:09:37.201Z,99238.58
2017-12-01T21:12:05.485Z,99252.61
2017-12-01T21:14:33.812Z,99249.08
2017-12-01T21:17:03.675Z,99270.54
2017-12-01T21:19:31.937Z,99257.02
2017-12-01T21:22:00.314Z,99261.06
2017-12-01T21:24:28.589Z,99256.52
2017-12-01T21:26:57.898Z,99261.55
2017-12-01T21:29:26.151Z,99267.71
2017-12-01T21:31:54.422Z,99260.36
2017-12-01T21:34:22.891Z,99266.74
2017-12-01T21:36:51.285Z,99252.41
2017-12-01T21:39:19.615Z,99279.71
2017-12-01T21:41:47.911Z,99272.88
2017-12-01T21:44:16.235Z,99276.14
2017-12-01T21:46:44.507Z,99257.20
2017-12-01T21:49:12.803Z,99262.22
2017-12-01T21:51:41.088Z,99274.72
2017-12-01T21:54:09.367Z,99279.89
2017-12-01T21:56:37.643Z,99283.57
2017-12-01T21:59:05.971Z,99280.27
2017-12-01T22:01:34.763Z,99283.12
2017-12-01T22:04:03.040Z,99291.66
2017-12-01T22:06:31.356Z,99301.35
2017-12-01T22:08:59.643Z,99301.08
2017-12-01T22:11:27.963Z,99304.67
2017-12-01T22:13:56.270Z,99302.48
2017-12-01T22:16:24.665Z,99292.80
2017-12-01T22:18:52.967Z,99310.74
2017-12-01T22:21:21.247Z,99310.96
2017-12-01T22:23:50.197Z,99317.95
2017-12-01T22:26:18.495Z,99323.41
2017-12-01T22:28:47.716Z,99341.78
2017-12-01T22:31:16.248Z,99322.25
2017-12-01T22:33:44.622Z,99329.49
2017-12-01T22:36:12.942Z,99328.91
2017-12-01T22:38:41.324Z,99341.56
2017-12-01T22:41:09.684Z,99344.42
2017-12-01T22:43:38.018Z,99344.64
2017-12-01T22:46:12.354Z,99345.31
2017-12-01T22:48:40.632Z,99341.59
2017-12-01T22:51:08.917Z,99342.27
2017-12-01T22:53:37.234Z,99339.70
2017-12-01T22:56:05.499Z,99349.77
2017-12-01T22:58:34.169Z,99352.70
2017-12-01T23:01:02.474Z,99350.11
2017-12-01T23:03:30.735Z,99349.12
2017-12-01T23:05:59.010Z,99352.33
2017-12-01T23:08:27.304Z,99354.41
2017-12-01T23:10:55.597Z,99355.48
2017-12-01T23:13:23.908Z,99360.77
2017-12-01T23:15:52.186Z,99358.41
2017-12-01T23:18:20.479Z,99346.94
2017-12-01T23:20:48.770Z,99352.53
2017-12-01T23:23:17.040Z,99356.61
2017-12-01T23:25:45.361Z,99358.16
2017-12-01T23:28:13.631Z,99356.87
2017-12-01T23:30:41.957Z,99362.97
2017-12-01T23:33:10.261Z,99365.42
2017-12-01T23:35:38.559Z,99357.11
2017-12-01T23:38:06.847Z,99347.13
2017-12-01T23:40:35.167Z,99355.78
2017-12-01T23:43:03.427Z,99351.31
2017-12-01T23:45:31.729Z,99358.66
2017-12-01T23:48:00.053Z,99352.14
2017-12-01T23:50:28.427Z,99356.92
2017-12-01T23:52:56.699Z,99351.73
2017-12-01T23:55:24.970Z,99360.15
2017-12-01T23:57:53.253Z,99369.07
